Time;durP1;ratioP1;P1;durP2;ratioP2;P2;SDS_P1;SDS_P2;PMS_P1;PMS_P2;Temp;Humidity;BMP_temperature;BMP_pressure;BME280_temperature;BME280_humidity;BME280_pressure;Samples;Min_cycle;Max_cycle;Signal;HPM_P1;HPM_P2
2023/08/05 00:01:12;;;;;;;1.80;1.70;;;21.30;77.20;;;;;;4995935;28;20192;-69
2023/08/05 00:03:38;;;;;;;2.05;1.50;;;21.30;77.20;;;;;;5001954;28;20197;-71
2023/08/05 00:06:04;;;;;;;1.60;1.50;;;21.30;77.20;;;;;;4984939;28;20187;-71
2023/08/05 00:08:29;;;;;;;1.95;1.80;;;21.30;77.20;;;;;;4964102;28;20226;-70
2023/08/05 00:10:55;;;;;;;1.50;1.40;;;21.30;77.30;;;;;;4988571;28;20203;-71
2023/08/05 00:13:21;;;;;;;1.30;1.20;;;21.30;77.20;;;;;;4972105;28;20192;-70
2023/08/05 00:15:49;;;;;;;1.83;1.48;;;21.30;77.20;;;;;;5013815;28;20219;-70
2023/08/05 00:18:15;;;;;;;1.73;1.63;;;21.30;77.20;;;;;;4988101;28;20205;-70
2023/08/05 00:20:41;;;;;;;1.60;1.50;;;21.30;77.30;;;;;;5000261;28;20220;-71
2023/08/05 00:23:06;;;;;;;1.70;1.60;;;21.30;77.30;;;;;;5010372;28;20248;-73
2023/08/05 00:25:32;;;;;;;1.58;1.48;;;21.30;77.30;;;;;;4968553;28;20208;-71
2023/08/05 00:27:58;;;;;;;1.80;1.70;;;21.30;77.30;;;;;;4991479;28;20750;-70
2023/08/05 00:30:23;;;;;;;1.60;1.20;;;21.30;77.30;;;;;;5005457;28;20570;-70
2023/08/05 00:32:49;;;;;;;1.70;1.60;;;21.30;77.30;;;;;;5009064;28;20189;-70
2023/08/05 00:35:15;;;;;;;1.55;1.45;;;21.30;77.30;;;;;;4977529;28;20184;-71
2023/08/05 00:37:41;;;;;;;1.83;1.73;;;21.30;77.30;;;;;;5012257;28;20243;-70
2023/08/05 00:40:08;;;;;;;3.08;1.80;;;21.30;77.30;;;;;;4996054;28;20197;-71
2023/08/05 00:42:33;;;;;;;1.63;1.52;;;21.30;77.30;;;;;;4976312;28;20203;-70
2023/08/05 00:44:59;;;;;;;1.80;1.67;;;21.30;77.30;;;;;;4991560;28;20671;-71
2023/08/05 00:47:25;;;;;;;1.60;1.50;;;21.30;77.30;;;;;;4993256;28;20216;-72
2023/08/05 00:49:56;;;;;;;1.90;1.80;;;21.20;77.20;;;;;;4992920;28;20271;-71
2023/08/05 00:52:23;;;;;;;2.83;1.52;;;21.30;77.30;;;;;;4984463;28;20210;-70
2023/08/05 00:54:50;;;;;;;1.77;1.67;;;21.30;77.20;;;;;;4998421;28;20223;-70
2023/08/05 00:57:18;;;;;;;1.77;1.67;;;21.20;77.20;;;;;;4985771;28;20285;-70
2023/08/05 00:59:45;;;;;;;1.77;1.67;;;21.30;77.30;;;;;;4980363;28;20640;-70
2023/08/05 01:02:10;;;;;;;1.95;1.80;;;21.30;77.20;;;;;;5001524;28;20184;-71
2023/08/05 01:04:36;;;;;;;1.90;1.77;;;21.30;77.30;;;;;;5004081;28;20180;-70
2023/08/05 01:07:04;;;;;;;1.25;1.25;;;21.20;77.10;;;;;;4979958;28;20241;-71
2023/08/05 01:09:30;;;;;;;1.80;1.70;;;21.30;77.30;;;;;;5011165;28;20184;-70
2023/08/05 01:11:56;;;;;;;1.60;1.50;;;21.30;77.20;;;;;;4989388;28;20185;-69
2023/08/05 01:14:22;;;;;;;1.60;1.50;;;21.30;77.30;;;;;;4977441;28;20257;-70
2023/08/05 01:16:47;;;;;;;1.52;1.42;;;21.20;77.20;;;;;;4986921;28;20204;-70
2023/08/05 01:19:21;;;;;;;1.58;1.48;;;21.20;77.20;;;;;;4987322;28;20216;-71
2023/08/05 01:22:10;;;;;;;1.73;1.63;;;21.20;77.20;;;;;;4995257;28;20184;-70
2023/08/05 01:24:59;;;;;;;1.92;1.83;;;21.30;77.30;;;;;;4967943;28;20258;-70
2023/08/05 01:27:27;;;;;;;1.90;1.80;;;21.20;77.20;;;;;;4987024;28;20204;-70
2023/08/05 01:29:53;;;;;;;1.83;1.73;;;21.20;77.20;;;;;;4989179;28;20188;-70
2023/08/05 01:32:20;;;;;;;1.90;1.80;;;21.20;77.20;;;;;;4990830;28;20193;-71
2023/08/05 01:34:48;;;;;;;1.90;1.63;;;21.30;77.30;;;;;;4987252;28;20233;-70
2023/08/05 01:37:14;;;;;;;1.80;1.70;;;21.20;77.20;;;;;;4978043;28;20328;-70
2023/08/05 01:39:40;;;;;;;1.85;1.75;;;21.30;77.20;;;;;;4999677;28;20193;-70
2023/08/05 01:42:06;;;;;;;2.00;1.90;;;21.20;77.20;;;;;;4961205;28;20189;-70
2023/08/05 01:44:32;;;;;;;1.92;1.83;;;21.20;77.20;;;;;;4970408;28;20192;-71
2023/08/05 01:46:57;;;;;;;2.05;1.85;;;21.20;77.10;;;;;;4978585;28;20196;-70
2023/08/05 01:49:23;;;;;;;2.28;2.10;;;21.20;77.10;;;;;;4986928;28;20184;-70
2023/08/05 01:51:49;;;;;;;2.13;2.00;;;21.20;77.20;;;;;;5003049;28;20188;-70
2023/08/05 01:54:16;;;;;;;1.63;1.50;;;21.20;77.20;;;;;;4999699;28;20239;-71
2023/08/05 01:56:42;;;;;;;2.30;1.85;;;21.20;77.20;;;;;;5010848;28;20227;-70
2023/08/05 01:59:08;;;;;;;1.80;1.70;;;21.20;77.20;;;;;;5003233;28;20192;-70
2023/08/05 02:02:00;;;;;;;2.13;1.95;;;21.20;77.20;;;;;;4991231;28;20181;-70
2023/08/05 02:04:26;;;;;;;1.70;1.60;;;21.20;77.20;;;;;;4973685;28;20197;-70
2023/08/05 02:06:51;;;;;;;2.10;1.98;;;21.20;77.20;;;;;;5007410;28;20193;-70
2023/08/05 02:09:17;;;;;;;2.28;1.73;;;21.20;77.20;;;;;;4975988;28;20195;-70
2023/08/05 02:11:43;;;;;;;2.13;1.90;;;21.20;77.20;;;;;;4994727;28;20188;-71
2023/08/05 02:14:09;;;;;;;2.10;1.95;;;21.20;77.20;;;;;;4986590;28;20197;-71
2023/08/05 02:16:35;;;;;;;2.00;1.75;;;21.20;77.20;;;;;;4982588;28;20216;-72
2023/08/05 02:19:01;;;;;;;1.98;1.88;;;21.20;77.20;;;;;;4986547;28;20274;-70
2023/08/05 02:21:27;;;;;;;2.28;2.17;;;21.20;77.20;;;;;;4966735;28;20227;-70
2023/08/05 02:23:53;;;;;;;2.08;1.98;;;21.20;77.20;;;;;;4999105;28;20189;-71
2023/08/05 02:26:19;;;;;;;1.85;1.75;;;21.20;77.20;;;;;;4974739;28;20303;-71
2023/08/05 02:28:46;;;;;;;2.08;1.98;;;21.20;77.20;;;;;;4987266;28;20208;-70
2023/08/05 02:31:13;;;;;;;2.10;1.95;;;21.20;77.10;;;;;;4986247;28;20193;-70
2023/08/05 02:33:39;;;;;;;2.25;2.05;;;21.20;77.10;;;;;;4958583;28;20189;-70
2023/08/05 02:36:05;;;;;;;2.20;2.00;;;21.20;77.10;;;;;;4996807;28;20219;-70
2023/08/05 02:38:30;;;;;;;2.08;1.98;;;21.20;77.20;;;;;;4991602;28;20203;-71
2023/08/05 02:40:58;;;;;;;2.25;2.05;;;21.20;77.20;;;;;;4980845;28;20742;-71
2023/08/05 02:43:24;;;;;;;1.75;1.65;;;21.20;77.20;;;;;;5002327;28;20286;-70
2023/08/05 02:45:57;;;;;;;1.83;1.73;;;21.20;77.20;;;;;;5003616;28;20275;-70
2023/08/05 02:48:24;;;;;;;2.10;2.00;;;21.20;77.20;;;;;;4977632;28;20334;-71
2023/08/05 02:50:51;;;;;;;2.40;2.20;;;21.20;77.20;;;;;;5005608;28;20236;-71
2023/08/05 02:53:17;;;;;;;2.10;2.00;;;21.20;77.20;;;;;;4982474;28;20721;-70
2023/08/05 02:55:44;;;;;;;2.17;2.08;;;21.20;77.20;;;;;;4982672;28;20578;-70
2023/08/05 02:58:10;;;;;;;2.33;2.13;;;21.20;77.20;;;;;;4974131;28;20215;-70
2023/08/05 03:00:36;;;;;;;2.60;2.40;;;21.20;77.20;;;;;;5000160;28;20201;-71
2023/08/05 03:03:02;;;;;;;2.00;1.90;;;21.20;77.20;;;;;;4966452;28;20345;-69
2023/08/05 03:05:28;;;;;;;2.50;2.30;;;21.20;77.20;;;;;;5000332;28;20284;-71
2023/08/05 03:07:55;;;;;;;2.33;2.13;;;21.20;77.20;;;;;;5012184;28;20208;-71
2023/08/05 03:10:21;;;;;;;2.55;2.35;;;21.20;77.20;;;;;;4989749;28;20184;-70
2023/08/05 03:12:47;;;;;;;2.33;2.15;;;21.20;77.20;;;;;;4973633;28;20222;-70
2023/08/05 03:15:13;;;;;;;2.13;2.03;;;21.20;77.20;;;;;;5006030;28;20184;-70
2023/08/05 03:17:38;;;;;;;2.08;1.98;;;21.20;77.20;;;;;;4988915;28;20212;-70
2023/08/05 03:20:21;;;;;;;2.28;2.17;;;21.20;77.20;;;;;;4989613;28;20237;-70
2023/08/05 03:22:48;;;;;;;2.20;2.10;;;21.20;77.20;;;;;;5009137;28;20276;-70
2023/08/05 03:25:14;;;;;;;2.00;1.90;;;21.20;77.20;;;;;;5010261;28;20180;-70
2023/08/05 03:27:39;;;;;;;2.17;1.98;;;21.20;77.20;;;;;;4988953;28;20211;-70
2023/08/05 03:30:06;;;;;;;2.20;2.00;;;21.20;77.20;;;;;;4980816;28;20188;-70
2023/08/05 03:32:34;;;;;;;2.10;1.98;;;21.20;77.20;;;;;;4994519;28;20208;-71
2023/08/05 03:35:00;;;;;;;2.25;2.10;;;21.20;77.20;;;;;;4975294;28;20272;-70
2023/08/05 03:37:27;;;;;;;2.50;2.30;;;21.20;77.20;;;;;;4985193;28;20227;-70
2023/08/05 03:39:52;;;;;;;2.67;2.25;;;21.20;77.20;;;;;;4985891;28;20305;-70
2023/08/05 03:42:18;;;;;;;2.10;2.00;;;21.20;77.20;;;;;;4985342;28;20185;-70
2023/08/05 03:44:44;;;;;;;2.33;2.13;;;21.20;77.20;;;;;;4997699;28;20176;-70
2023/08/05 03:47:10;;;;;;;2.08;1.98;;;21.20;77.20;;;;;;4997479;28;20212;-71
2023/08/05 03:49:38;;;;;;;2.33;2.22;;;21.20;77.20;;;;;;5001522;28;20209;-70
2023/08/05 03:52:05;;;;;;;2.17;2.08;;;21.20;77.20;;;;;;4977413;28;20192;-70
2023/08/05 03:54:30;;;;;;;2.50;2.30;;;21.20;77.20;;;;;;4987495;28;20270;-70
2023/08/05 03:56:59;;;;;;;2.55;2.35;;;21.20;77.20;;;;;;4969006;28;20216;-70
2023/08/05 03:59:25;;;;;;;2.58;2.38;;;21.20;77.20;;;;;;4975329;28;20276;-70
2023/08/05 04:01:52;;;;;;;2.58;2.38;;;21.20;77.20;;;;;;4990081;28;20228;-71
2023/08/05 04:04:17;;;;;;;2.58;2.42;;;21.20;77.30;;;;;;5005098;28;20243;-70
2023/08/05 04:06:45;;;;;;;2.72;2.50;;;21.20;77.20;;;;;;4976614;28;20212;-68
2023/08/05 04:09:12;;;;;;;2.10;2.00;;;21.20;77.20;;;;;;4992658;28;20199;-70
2023/08/05 04:11:38;;;;;;;2.15;2.05;;;21.20;77.20;;;;;;4977497;28;20242;-71
2023/08/05 04:14:05;;;;;;;2.47;2.28;;;21.20;77.20;;;;;;4983678;28;20192;-70
2023/08/05 04:16:31;;;;;;;2.28;2.10;;;21.20;77.20;;;;;;4979829;28;20216;-70
2023/08/05 04:18:58;;;;;;;2.17;2.08;;;21.20;77.20;;;;;;4974446;28;20201;-68
2023/08/05 04:21:28;;;;;;;2.63;2.42;;;21.20;77.20;;;;;;4977949;28;20180;-70
2023/08/05 04:23:56;;;;;;;2.10;2.00;;;21.20;77.30;;;;;;5012542;28;20188;-70
2023/08/05 04:26:24;;;;;;;2.47;2.17;;;21.20;77.20;;;;;;4979274;28;20221;-69
2023/08/05 04:28:49;;;;;;;2.30;2.10;;;21.20;77.20;;;;;;4981230;28;20208;-72
2023/08/05 04:31:15;;;;;;;2.10;2.00;;;21.10;77.10;;;;;;4972544;28;20667;-70
2023/08/05 04:33:42;;;;;;;2.70;2.47;;;21.20;77.30;;;;;;4993037;28;20188;-70
2023/08/05 04:36:07;;;;;;;3.28;2.40;;;21.20;77.20;;;;;;4999539;28;20230;-70
2023/08/05 04:38:33;;;;;;;2.70;2.50;;;21.10;77.10;;;;;;4977810;28;20204;-70
2023/08/05 04:40:59;;;;;;;2.58;2.38;;;21.20;77.20;;;;;;4960514;28;20189;-70
2023/08/05 04:43:25;;;;;;;2.40;2.20;;;21.20;77.20;;;;;;4976538;28;20661;-70
2023/08/05 04:45:51;;;;;;;2.70;2.50;;;21.10;77.10;;;;;;4992730;28;20272;-70
2023/08/05 04:48:17;;;;;;;2.47;2.28;;;21.10;77.10;;;;;;4992344;28;20211;-70
2023/08/05 04:50:43;;;;;;;2.50;2.35;;;21.20;77.20;;;;;;4995979;28;20195;-70
2023/08/05 04:53:09;;;;;;;2.28;2.17;;;21.10;77.10;;;;;;4973127;28;20192;-70
2023/08/05 04:55:35;;;;;;;2.85;2.60;;;21.10;77.10;;;;;;4994404;28;20211;-70
2023/08/05 04:58:02;;;;;;;2.40;2.25;;;21.10;77.20;;;;;;5002368;28;20212;-70
2023/08/05 05:00:28;;;;;;;2.67;2.47;;;21.10;77.20;;;;;;4987408;28;20219;-70
2023/08/05 05:02:54;;;;;;;3.00;2.65;;;21.10;77.20;;;;;;4976015;28;20192;-70
2023/08/05 05:05:19;;;;;;;2.22;2.10;;;21.10;77.20;;;;;;4987595;28;20189;-69
2023/08/05 05:07:45;;;;;;;2.63;2.42;;;21.10;77.10;;;;;;5003619;28;20226;-71
2023/08/05 05:10:11;;;;;;;2.60;2.40;;;21.10;77.20;;;;;;5012902;28;20678;-70
2023/08/05 05:12:36;;;;;;;2.75;2.55;;;21.10;77.10;;;;;;4969054;28;20184;-70
2023/08/05 05:15:03;;;;;;;2.03;1.92;;;21.10;77.20;;;;;;4989923;28;20218;-70
2023/08/05 05:17:36;;;;;;;2.42;2.22;;;21.10;77.20;;;;;;4986732;28;20310;-70
2023/08/05 05:20:04;;;;;;;2.00;1.90;;;21.10;77.20;;;;;;4971460;28;20238;-70
2023/08/05 05:22:31;;;;;;;2.60;2.40;;;21.20;77.30;;;;;;5003312;28;20196;-71
2023/08/05 05:24:58;;;;;;;2.50;2.25;;;21.10;77.20;;;;;;4982107;28;20284;-70
2023/08/05 05:27:24;;;;;;;2.45;2.25;;;21.10;77.20;;;;;;4975813;28;20218;-70
2023/08/05 05:29:50;;;;;;;2.13;2.00;;;21.10;77.20;;;;;;4986352;28;20192;-70
2023/08/05 05:32:15;;;;;;;2.65;2.45;;;21.10;77.20;;;;;;4987869;28;20197;-70
2023/08/05 05:34:41;;;;;;;2.63;2.42;;;21.10;77.20;;;;;;4970313;28;20223;-70
2023/08/05 05:37:07;;;;;;;2.70;2.50;;;21.10;77.20;;;;;;4994434;28;20223;-70
2023/08/05 05:39:32;;;;;;;2.17;2.08;;;21.10;77.20;;;;;;4985092;28;20224;-70
2023/08/05 05:41:59;;;;;;;2.88;2.67;;;21.10;77.20;;;;;;4988648;28;20667;-70
2023/08/05 05:44:27;;;;;;;3.10;2.65;;;21.10;77.20;;;;;;4995269;28;20192;-70
2023/08/05 05:46:53;;;;;;;2.85;2.65;;;21.10;77.20;;;;;;4999304;28;20193;-70
2023/08/05 05:49:19;;;;;;;3.10;2.60;;;21.10;77.20;;;;;;4991147;28;20187;-70
2023/08/05 05:51:47;;;;;;;2.90;2.70;;;21.10;77.20;;;;;;4975140;28;20227;-71
2023/08/05 05:54:13;;;;;;;2.92;2.72;;;21.10;77.20;;;;;;4982240;28;20180;-70
2023/08/05 05:56:39;;;;;;;2.63;2.42;;;21.10;77.20;;;;;;4994370;28;20243;-71
2023/08/05 05:59:05;;;;;;;2.63;2.42;;;21.10;77.20;;;;;;4978522;28;20275;-69
2023/08/05 06:01:31;;;;;;;2.50;2.30;;;21.10;77.20;;;;;;4969149;28;20188;-70
2023/08/05 06:03:57;;;;;;;2.55;2.35;;;21.10;77.20;;;;;;5004165;28;20234;-70
2023/08/05 06:06:23;;;;;;;2.40;2.30;;;21.10;77.20;;;;;;4978133;28;20234;-70
2023/08/05 06:08:48;;;;;;;2.88;2.33;;;21.10;77.20;;;;;;4983025;28;20593;-70
2023/08/05 06:11:14;;;;;;;2.50;2.30;;;21.10;77.20;;;;;;4999489;28;20197;-70
2023/08/05 06:13:40;;;;;;;2.60;2.40;;;21.10;77.20;;;;;;4993553;28;20192;-70
2023/08/05 06:16:06;;;;;;;2.63;2.42;;;21.10;77.30;;;;;;4970057;28;20219;-70
2023/08/05 06:18:32;;;;;;;2.67;2.47;;;21.10;77.30;;;;;;5000782;28;20231;-70
2023/08/05 06:20:57;;;;;;;2.70;2.50;;;21.10;77.30;;;;;;5004235;28;20192;-70
2023/08/05 06:23:23;;;;;;;2.55;2.35;;;21.10;77.20;;;;;;5002132;28;20196;-72
2023/08/05 06:25:49;;;;;;;2.63;2.42;;;21.10;77.30;;;;;;4998496;28;20184;-70
2023/08/05 06:28:15;;;;;;;2.85;2.65;;;21.10;77.30;;;;;;4983637;28;20208;-70
2023/08/05 06:30:45;;;;;;;2.53;2.33;;;21.10;77.30;;;;;;4962093;28;20185;-71
2023/08/05 06:33:11;;;;;;;2.95;2.75;;;21.10;77.20;;;;;;4994308;28;20268;-70
2023/08/05 06:35:37;;;;;;;2.38;2.17;;;21.10;77.20;;;;;;4994153;28;20185;-70
2023/08/05 06:38:03;;;;;;;3.05;2.72;;;21.10;77.30;;;;;;5010223;28;20294;-70
2023/08/05 06:40:29;;;;;;;2.92;2.65;;;21.10;77.30;;;;;;4993917;28;20287;-70
2023/08/05 06:42:56;;;;;;;3.10;2.80;;;21.10;77.30;;;;;;4974999;28;20203;-70
2023/08/05 06:45:22;;;;;;;2.92;2.72;;;21.10;77.20;;;;;;5006457;28;20192;-70
2023/08/05 06:47:49;;;;;;;2.63;2.42;;;21.10;77.20;;;;;;4994631;28;20212;-71
2023/08/05 06:50:15;;;;;;;3.00;2.80;;;21.10;77.20;;;;;;4993433;28;20188;-71
2023/08/05 06:52:41;;;;;;;2.92;2.65;;;21.10;77.20;;;;;;4979331;28;20207;-70
2023/08/05 06:55:08;;;;;;;2.70;2.50;;;21.10;77.20;;;;;;4978626;28;20197;-70
2023/08/05 06:57:35;;;;;;;2.72;2.53;;;21.10;77.20;;;;;;4977938;28;20217;-70
2023/08/05 07:00:01;;;;;;;3.15;2.88;;;21.10;77.20;;;;;;4999628;28;20563;-70
2023/08/05 07:02:27;;;;;;;2.60;2.40;;;21.10;77.20;;;;;;4981050;28;20184;-69
2023/08/05 07:04:53;;;;;;;2.45;2.25;;;21.10;77.20;;;;;;4997490;28;20254;-70
2023/08/05 07:07:19;;;;;;;2.40;2.20;;;21.10;77.30;;;;;;4997407;28;20207;-70
2023/08/05 07:09:45;;;;;;;2.47;2.30;;;21.10;77.20;;;;;;5011038;28;20279;-70
2023/08/05 07:12:11;;;;;;;2.70;2.50;;;21.10;77.20;;;;;;4994570;28;20724;-70
2023/08/05 07:14:38;;;;;;;2.90;2.70;;;21.10;77.20;;;;;;4982368;28;20192;-70
2023/08/05 07:17:04;;;;;;;2.58;2.45;;;21.10;77.20;;;;;;4966557;28;20220;-71
2023/08/05 07:19:30;;;;;;;2.58;2.38;;;21.10;77.20;;;;;;4979959;28;20247;-71
2023/08/05 07:21:56;;;;;;;2.80;2.60;;;21.10;77.20;;;;;;4977470;28;20657;-73
2023/08/05 07:24:22;;;;;;;2.50;2.30;;;21.10;77.20;;;;;;4977791;28;20189;-73
2023/08/05 07:26:48;;;;;;;2.72;2.53;;;21.10;77.20;;;;;;4996265;28;20196;-71
2023/08/05 07:29:14;;;;;;;2.70;2.50;;;21.10;77.20;;;;;;4999106;28;20192;-70
2023/08/05 07:31:40;;;;;;;2.30;2.10;;;21.10;77.20;;;;;;4979732;28;20193;-70
2023/08/05 07:34:05;;;;;;;2.13;2.03;;;21.20;77.20;;;;;;5011871;28;20222;-70
2023/08/05 07:36:31;;;;;;;2.55;2.35;;;21.10;77.10;;;;;;4970554;28;20575;-71
2023/08/05 07:39:00;;;;;;;2.67;2.47;;;21.20;77.20;;;;;;4981724;28;20686;-72
2023/08/05 07:41:26;;;;;;;2.80;2.60;;;21.10;77.10;;;;;;4999388;28;20188;-72
2023/08/05 07:43:58;;;;;;;2.92;2.72;;;21.10;77.10;;;;;;4986097;28;20227;-72
2023/08/05 07:46:30;;;;;;;2.88;2.67;;;21.20;77.20;;;;;;5009881;28;20192;-72
2023/08/05 07:48:58;;;;;;;3.00;2.70;;;21.20;77.20;;;;;;4989875;28;20211;-72
2023/08/05 07:51:24;;;;;;;3.25;2.95;;;21.20;77.20;;;;;;4989449;28;20220;-72
2023/08/05 07:53:53;;;;;;;3.38;3.10;;;21.20;77.20;;;;;;4972507;28;20270;-71
2023/08/05 07:56:19;;;;;;;3.45;3.15;;;21.20;77.20;;;;;;4961487;28;20217;-71
2023/08/05 07:58:46;;;;;;;3.40;3.10;;;21.20;77.20;;;;;;4976821;28;20215;-73
2023/08/05 08:01:17;;;;;;;3.25;2.95;;;21.20;77.20;;;;;;4985714;28;20214;-71
2023/08/05 08:03:43;;;;;;;2.92;2.70;;;21.20;77.20;;;;;;5010122;28;20187;-71
2023/08/05 08:06:15;;;;;;;3.30;3.00;;;21.20;77.20;;;;;;4985746;28;20213;-71
2023/08/05 08:08:45;;;;;;;2.72;2.53;;;21.20;77.20;;;;;;5009732;28;20253;-71
2023/08/05 08:11:12;;;;;;;3.00;2.80;;;21.20;77.20;;;;;;4977478;28;20640;-71
2023/08/05 08:13:39;;;;;;;3.38;3.08;;;21.20;77.20;;;;;;4985372;28;20196;-72
2023/08/05 08:16:06;;;;;;;3.72;3.40;;;21.20;77.20;;;;;;4988410;28;20239;-71
2023/08/05 08:18:32;;;;;;;3.38;3.08;;;21.20;77.20;;;;;;4987146;28;20219;-71
2023/08/05 08:20:58;;;;;;;3.03;2.78;;;21.20;77.20;;;;;;5001006;28;20193;-72
2023/08/05 08:23:24;;;;;;;3.70;3.42;;;21.20;77.20;;;;;;5000692;28;20187;-73
2023/08/05 08:25:50;;;;;;;3.40;3.10;;;21.20;77.10;;;;;;5002514;28;20251;-71
2023/08/05 08:28:16;;;;;;;3.08;2.80;;;21.20;77.00;;;;;;4972859;28;20205;-72
2023/08/05 08:30:56;;;;;;;3.40;3.10;;;21.20;77.10;;;;;;4993370;28;20758;-71
2023/08/05 08:33:27;;;;;;;3.75;3.20;;;21.20;77.10;;;;;;4988994;28;20177;-72
2023/08/05 08:35:53;;;;;;;3.05;2.83;;;21.20;77.10;;;;;;4984912;28;20276;-71
2023/08/05 08:38:20;;;;;;;3.50;3.20;;;21.20;77.10;;;;;;4961705;28;20283;-70
2023/08/05 08:40:48;;;;;;;3.50;3.20;;;21.20;77.10;;;;;;4995252;28;20278;-71
2023/08/05 08:43:18;;;;;;;3.25;2.95;;;21.20;77.00;;;;;;4987722;28;20192;-71
2023/08/05 08:45:51;;;;;;;3.03;2.83;;;21.20;77.00;;;;;;4999242;28;20272;-70
2023/08/05 08:48:18;;;;;;;4.28;3.40;;;21.30;77.00;;;;;;4987718;28;20230;-70
2023/08/05 08:50:46;;;;;;;3.65;3.35;;;21.30;77.00;;;;;;4985899;28;20207;-72
2023/08/05 08:53:15;;;;;;;3.40;3.20;;;21.30;76.90;;;;;;4993686;28;20184;-72
2023/08/05 08:55:42;;;;;;;3.30;3.08;;;21.30;76.90;;;;;;4988750;28;20189;-72
2023/08/05 08:58:08;;;;;;;2.90;2.70;;;21.30;76.70;;;;;;4997602;28;20208;-72
2023/08/05 09:00:36;;;;;;;2.88;2.67;;;21.30;76.70;;;;;;4979635;28;20191;-69
2023/08/05 09:03:03;;;;;;;3.90;3.50;;;21.30;76.70;;;;;;4991414;28;20189;-71
2023/08/05 09:05:42;;;;;;;3.30;3.10;;;21.30;76.80;;;;;;4992124;28;20219;-70
2023/08/05 09:08:09;;;;;;;3.55;3.15;;;21.40;76.90;;;;;;4983157;28;20612;-72
2023/08/05 09:10:37;;;;;;;3.30;3.10;;;21.40;76.80;;;;;;4978496;28;20204;-71
2023/08/05 09:13:05;;;;;;;3.70;2.90;;;21.40;76.80;;;;;;4974946;28;20202;-70
2023/08/05 09:15:37;;;;;;;3.05;2.80;;;21.40;76.80;;;;;;4995733;28;20191;-70
2023/08/05 09:18:05;;;;;;;2.80;2.60;;;21.40;76.80;;;;;;4987302;28;20641;-72
2023/08/05 09:20:32;;;;;;;2.85;2.65;;;21.40;76.90;;;;;;4984720;28;20214;-70
2023/08/05 09:23:01;;;;;;;2.85;2.65;;;21.40;76.90;;;;;;4992017;28;20219;-72
2023/08/05 09:25:29;;;;;;;3.38;3.08;;;21.40;76.80;;;;;;4983793;28;20185;-71
2023/08/05 09:27:56;;;;;;;3.38;2.83;;;21.40;76.90;;;;;;4991126;28;20217;-71
2023/08/05 09:30:24;;;;;;;3.20;3.00;;;21.40;76.90;;;;;;4972291;28;20196;-72
2023/08/05 09:32:52;;;;;;;3.35;3.05;;;21.40;77.00;;;;;;4990230;28;20279;-72
2023/08/05 09:35:18;;;;;;;3.20;3.00;;;21.40;77.10;;;;;;4965847;28;20211;-70
2023/08/05 09:37:46;;;;;;;3.30;3.00;;;21.40;77.00;;;;;;4977151;28;20311;-71
2023/08/05 09:40:28;;;;;;;3.92;3.45;;;21.40;77.00;;;;;;4995017;28;20188;-71
2023/08/05 09:43:03;;;;;;;3.30;3.00;;;21.40;77.00;;;;;;4970641;28;20190;-69
2023/08/05 09:45:32;;;;;;;3.70;3.00;;;21.30;76.90;;;;;;4986920;28;20257;-70
2023/08/05 09:48:09;;;;;;;3.08;2.88;;;21.40;77.00;;;;;;4991477;28;20208;-71
2023/08/05 09:50:40;;;;;;;3.05;2.85;;;21.40;77.00;;;;;;5001216;28;20196;-70
2023/08/05 09:53:10;;;;;;;3.20;3.00;;;21.40;77.00;;;;;;4983409;28;20199;-71
2023/08/05 09:55:39;;;;;;;3.42;3.13;;;21.40;77.00;;;;;;4999969;28;20188;-71
2023/08/05 09:58:07;;;;;;;3.45;3.10;;;21.40;77.00;;;;;;4986689;28;20232;-71
2023/08/05 10:00:37;;;;;;;3.47;3.17;;;21.40;76.90;;;;;;4965557;28;20196;-72
2023/08/05 10:03:06;;;;;;;3.13;2.80;;;21.40;76.90;;;;;;4986541;28;20572;-71
2023/08/05 10:05:34;;;;;;;3.30;3.00;;;21.40;76.80;;;;;;4986613;28;20211;-72
2023/08/05 10:08:00;;;;;;;2.78;2.58;;;21.40;76.80;;;;;;5000402;28;20216;-71
2023/08/05 10:10:29;;;;;;;4.05;3.42;;;21.40;76.80;;;;;;4975007;28;20207;-71
2023/08/05 10:13:08;;;;;;;3.88;3.40;;;21.40;76.80;;;;;;5001744;28;20183;-72
2023/08/05 10:15:42;;;;;;;3.08;2.80;;;21.40;76.80;;;;;;4978096;28;20283;-71
2023/08/05 10:18:10;;;;;;;3.42;3.13;;;21.40;76.80;;;;;;4989154;28;20212;-71
2023/08/05 10:20:37;;;;;;;3.13;2.83;;;21.40;76.80;;;;;;5007893;28;20192;-71
2023/08/05 10:23:13;;;;;;;3.40;3.20;;;21.40;76.80;;;;;;5000046;28;20188;-71
2023/08/05 10:25:49;;;;;;;3.42;3.13;;;21.40;76.80;;;;;;4983746;28;20612;-71
2023/08/05 10:28:25;;;;;;;3.28;2.97;;;21.40;76.90;;;;;;4964233;28;20291;-71
2023/08/05 10:30:54;;;;;;;4.68;3.00;;;21.40;76.90;;;;;;4991034;28;20202;-70
2023/08/05 10:33:20;;;;;;;4.00;2.83;;;21.40;76.80;;;;;;4989354;28;20222;-69
2023/08/05 10:35:49;;;;;;;4.13;3.33;;;21.40;76.80;;;;;;5011578;28;20673;-72
2023/08/05 10:38:22;;;;;;;3.60;2.95;;;21.40;76.80;;;;;;4964263;28;20208;-71
2023/08/05 10:41:04;;;;;;;4.07;3.30;;;21.40;76.80;;;;;;5000623;28;20197;-71
2023/08/05 10:43:32;;;;;;;3.55;3.25;;;21.40;76.80;;;;;;5003022;28;20204;-71
2023/08/05 10:46:05;;;;;;;3.75;3.45;;;21.40;76.80;;;;;;4994115;28;20196;-71
2023/08/05 10:48:35;;;;;;;3.20;2.90;;;21.40;76.80;;;;;;4986041;28;20246;-71
2023/08/05 10:51:11;;;;;;;2.88;2.67;;;21.40;76.70;;;;;;4966621;28;20192;-71
2023/08/05 10:53:38;;;;;;;4.65;3.13;;;21.40;76.70;;;;;;4998945;28;20196;-71
2023/08/05 10:56:11;;;;;;;3.33;3.03;;;21.40;76.80;;;;;;5002332;28;20275;-71
2023/08/05 10:58:50;;;;;;;3.92;3.10;;;21.50;76.80;;;;;;4974134;28;20255;-70
2023/08/05 11:01:17;;;;;;;3.63;2.90;;;21.40;76.70;;;;;;4988754;28;20199;-71
2023/08/05 11:03:47;;;;;;;3.60;2.70;;;21.40;76.70;;;;;;4974587;28;20256;-71
2023/08/05 11:06:15;;;;;;;3.30;3.00;;;21.50;76.60;;;;;;4999067;28;20193;-71
2023/08/05 11:08:42;;;;;;;4.85;2.72;;;21.40;76.60;;;;;;4982714;28;20211;-71
2023/08/05 11:11:10;;;;;;;2.83;2.63;;;21.40;76.50;;;;;;4998832;28;20258;-72
2023/08/05 11:13:38;;;;;;;3.00;2.70;;;21.50;77.40;;;;;;4976698;28;20266;-72
2023/08/05 11:16:12;;;;;;;3.42;3.13;;;21.40;76.60;;;;;;5002229;28;20314;-73
2023/08/05 11:18:41;;;;;;;3.13;2.80;;;21.40;76.50;;;;;;4993768;28;20601;-71
2023/08/05 11:21:17;;;;;;;3.03;2.83;;;21.50;76.70;;;;;;4998427;28;20193;-72
2023/08/05 11:23:47;;;;;;;2.75;2.55;;;21.50;76.70;;;;;;4999891;28;20247;-71
2023/08/05 11:26:13;;;;;;;2.95;2.75;;;21.50;76.70;;;;;;4963142;28;20243;-72
2023/08/05 11:28:46;;;;;;;3.03;2.78;;;21.50;76.60;;;;;;4987824;28;20208;-73
2023/08/05 11:31:26;;;;;;;2.88;2.67;;;21.50;76.50;;;;;;4978118;28;20189;-71
2023/08/05 11:33:55;;;;;;;3.13;2.83;;;21.50;76.30;;;;;;5007449;28;20177;-72
2023/08/05 11:36:28;;;;;;;2.92;2.72;;;21.50;76.50;;;;;;4975559;28;20220;-72
2023/08/05 11:39:00;;;;;;;3.72;2.95;;;21.50;76.40;;;;;;4973643;28;20204;-72
2023/08/05 11:41:27;;;;;;;3.00;2.70;;;21.50;76.50;;;;;;4973198;28;20239;-72
2023/08/05 11:43:56;;;;;;;3.95;2.90;;;21.50;76.40;;;;;;5002078;28;20188;-72
2023/08/05 11:46:27;;;;;;;3.22;2.92;;;21.50;76.40;;;;;;4983500;28;20192;-72
2023/08/05 11:49:13;;;;;;;3.25;2.80;;;21.50;76.30;;;;;;4987254;28;20217;-71
2023/08/05 11:51:52;;;;;;;3.58;2.60;;;21.50;76.10;;;;;;4991716;28;20271;-72
2023/08/05 11:54:32;;;;;;;2.97;2.78;;;21.50;76.60;;;;;;4970906;28;20211;-71
2023/08/05 11:56:58;;;;;;;3.17;2.88;;;21.50;76.20;;;;;;4970040;28;20278;-72
2023/08/05 11:59:45;;;;;;;2.90;2.42;;;21.50;76.60;;;;;;5001679;28;20199;-72
2023/08/05 12:02:13;;;;;;;2.58;2.38;;;21.50;76.30;;;;;;5001175;28;20176;-70
2023/08/05 12:04:49;;;;;;;3.25;2.75;;;21.50;76.30;;;;;;4991030;28;20315;-68
2023/08/05 12:07:20;;;;;;;3.75;2.80;;;21.50;76.30;;;;;;4962082;28;20223;-70
2023/08/05 12:10:19;;;;;;;2.85;2.65;;;21.50;76.40;;;;;;4985265;28;20573;-70
2023/08/05 12:12:50;;;;;;;3.88;2.80;;;21.50;76.30;;;;;;4985383;28;20205;-71
2023/08/05 12:15:26;;;;;;;2.80;2.60;;;21.50;76.30;;;;;;4999882;28;20189;-72
2023/08/05 12:18:17;;;;;;;3.25;2.63;;;21.50;76.40;;;;;;4992876;28;20254;-70
2023/08/05 12:20:47;;;;;;;4.15;2.75;;;21.50;76.40;;;;;;4981680;28;20212;-72
2023/08/05 12:23:12;;;;;;;2.60;2.40;;;21.50;76.30;;;;;;4968886;28;20185;-69
2023/08/05 12:25:38;;;;;;;3.10;2.80;;;21.50;76.30;;;;;;5001264;28;20283;-71
2023/08/05 12:28:04;;;;;;;2.72;2.53;;;21.50;76.20;;;;;;4971003;28;20570;-71
2023/08/05 12:30:29;;;;;;;2.90;2.60;;;21.50;76.30;;;;;;4972206;28;20203;-72
2023/08/05 12:32:57;;;;;;;2.92;2.60;;;21.50;76.20;;;;;;4972048;28;20198;-71
2023/08/05 12:35:24;;;;;;;3.08;2.67;;;21.50;76.20;;;;;;4996125;28;20196;-70
2023/08/05 12:37:50;;;;;;;3.40;2.80;;;21.50;76.20;;;;;;4995013;28;20216;-71
2023/08/05 12:40:16;;;;;;;2.72;2.53;;;21.50;76.20;;;;;;4989089;28;20188;-71
2023/08/05 12:42:41;;;;;;;3.13;2.60;;;21.60;76.20;;;;;;4989273;28;20188;-71
2023/08/05 12:45:08;;;;;;;2.67;2.47;;;21.60;76.20;;;;;;4993517;28;20185;-72
2023/08/05 12:47:36;;;;;;;2.50;2.35;;;21.50;76.00;;;;;;4990691;28;20283;-71
2023/08/05 12:50:03;;;;;;;2.60;2.40;;;21.50;76.20;;;;;;4969929;28;20198;-71
2023/08/05 12:52:29;;;;;;;2.60;2.40;;;21.50;76.10;;;;;;5002000;28;20196;-69